Time;durP1;ratioP1;P1;durP2;ratioP2;P2;SDS_P1;SDS_P2;PMS_P1;PMS_P2;Temp;Humidity;BMP_temperature;BMP_pressure;BME280_temperature;BME280_humidity;BME280_pressure;Samples;Min_cycle;Max_cycle;Signal;HPM_P1;HPM_P2
2023/03/26 00:00:39;;;;;;;12.23;6.25;;;11.30;99.90;;;;;;5032890;28;20053;-74
2023/03/26 00:03:06;;;;;;;12.70;6.38;;;11.40;99.90;;;;;;5015525;28;20041;-74
2023/03/26 00:05:32;;;;;;;12.15;6.50;;;11.40;99.90;;;;;;5031707;28;20021;-73
2023/03/26 00:07:58;;;;;;;9.45;6.43;;;11.40;99.90;;;;;;5015618;28;20049;-74
2023/03/26 00:10:24;;;;;;;12.07;5.78;;;11.40;99.90;;;;;;5015568;28;20025;-74
2023/03/26 00:12:50;;;;;;;11.07;5.55;;;11.40;99.90;;;;;;5023308;28;20070;-74
2023/03/26 00:15:16;;;;;;;13.05;5.35;;;11.40;99.90;;;;;;5028688;28;20025;-75
2023/03/26 00:17:45;;;;;;;14.27;5.63;;;11.40;99.90;;;;;;5021621;28;20036;-74
2023/03/26 00:20:12;;;;;;;10.45;4.53;;;11.40;99.90;;;;;;5024067;28;20029;-74
2023/03/26 00:22:39;;;;;;;13.43;5.60;;;11.40;99.90;;;;;;5029733;28;20048;-73
2023/03/26 00:25:06;;;;;;;14.63;7.15;;;11.50;99.90;;;;;;5027797;28;20060;-73
2023/03/26 00:27:32;;;;;;;12.30;5.30;;;11.50;99.90;;;;;;5032605;28;20374;-74
2023/03/26 00:29:59;;;;;;;10.55;5.63;;;11.40;99.90;;;;;;5031443;28;20392;-73
2023/03/26 00:32:29;;;;;;;10.70;5.00;;;11.40;99.90;;;;;;5025542;28;20049;-73
2023/03/26 00:34:56;;;;;;;12.77;4.82;;;11.40;99.90;;;;;;5013114;28;20034;-73
2023/03/26 00:37:25;;;;;;;12.98;4.70;;;11.40;99.90;;;;;;5011420;28;20065;-74
2023/03/26 00:39:52;;;;;;;13.10;5.60;;;11.40;99.90;;;;;;5012757;28;20486;-74
2023/03/26 00:42:19;;;;;;;15.02;4.97;;;11.50;99.90;;;;;;5012839;28;20030;-74
2023/03/26 00:44:45;;;;;;;8.85;4.82;;;11.50;99.90;;;;;;4995193;28;20046;-77
2023/03/26 00:47:12;;;;;;;15.32;5.85;;;11.50;99.90;;;;;;5012120;28;20048;-77
2023/03/26 00:49:38;;;;;;;13.88;5.78;;;11.50;99.90;;;;;;5020099;28;20478;-77
2023/03/26 00:52:07;;;;;;;12.02;4.93;;;11.40;99.90;;;;;;5031222;28;20044;-76
2023/03/26 00:54:34;;;;;;;13.70;4.97;;;11.40;99.90;;;;;;5031204;28;20402;-76
2023/03/26 00:57:00;;;;;;;14.00;4.55;;;11.40;99.90;;;;;;5032260;28;20037;-76
2023/03/26 00:59:29;;;;;;;11.40;4.30;;;11.30;99.90;;;;;;5032507;28;20367;-76
2023/03/26 01:01:57;;;;;;;14.75;5.13;;;11.30;99.90;;;;;;5031543;28;20394;-76
2023/03/26 01:04:29;;;;;;;14.40;5.35;;;11.30;99.90;;;;;;5030998;28;20033;-76
2023/03/26 01:06:57;;;;;;;18.27;5.13;;;11.30;99.90;;;;;;5032634;28;20048;-76
2023/03/26 01:09:32;;;;;;;15.63;5.32;;;11.20;99.90;;;;;;5014915;28;20589;-76
2023/03/26 01:12:00;;;;;;;19.77;5.65;;;11.20;99.90;;;;;;5028802;28;20497;-77
2023/03/26 01:14:27;;;;;;;14.10;5.78;;;11.10;99.90;;;;;;5027561;28;20026;-77
2023/03/26 01:16:56;;;;;;;20.48;7.07;;;11.10;99.90;;;;;;5026326;28;20510;-76
2023/03/26 01:19:44;;;;;;;17.75;5.90;;;11.10;99.90;;;;;;5011438;28;20065;-77
2023/03/26 01:22:17;;;;;;;17.38;6.40;;;11.10;99.90;;;;;;5012246;28;20442;-77
2023/03/26 01:24:51;;;;;;;20.73;5.90;;;11.10;99.90;;;;;;5043921;28;20029;-77
2023/03/26 01:27:45;;;;;;;16.65;5.35;;;11.10;99.90;;;;;;5030993;28;20486;-77
2023/03/26 01:30:11;;;;;;;13.38;5.32;;;11.10;99.90;;;;;;5030520;28;20025;-77
2023/03/26 01:33:12;;;;;;;23.25;6.05;;;11.00;99.90;;;;;;5031713;28;20045;-77
2023/03/26 01:35:59;;;;;;;18.48;6.47;;;11.00;99.90;;;;;;5030931;28;20037;-77
2023/03/26 01:38:50;;;;;;;25.38;6.32;;;11.00;99.90;;;;;;5016402;28;20041;-77
2023/03/26 01:41:19;;;;;;;19.23;5.88;;;11.00;99.90;;;;;;5015032;28;20040;-77
2023/03/26 01:44:08;;;;;;;21.38;6.35;;;11.10;99.90;;;;;;5032017;28;20368;-77
2023/03/26 01:46:35;;;;;;;15.88;5.57;;;11.10;99.90;;;;;;5013826;28;20030;-74
2023/03/26 01:49:02;;;;;;;25.35;6.57;;;11.10;99.90;;;;;;5014335;28;20374;-74
2023/03/26 01:51:30;;;;;;;27.25;6.18;;;11.10;99.90;;;;;;5030568;28;20027;-74
2023/03/26 01:53:57;;;;;;;21.63;6.30;;;11.10;99.90;;;;;;5031792;28;20032;-74
2023/03/26 01:56:47;;;;;;;24.48;7.35;;;11.00;99.90;;;;;;5031947;28;20044;-74
2023/03/26 01:59:19;;;;;;;18.48;6.47;;;11.00;99.90;;;;;;5033908;28;20033;-74
2023/03/26 02:01:45;;;;;;;24.08;7.25;;;11.00;99.90;;;;;;5034598;28;20060;-75
2023/03/26 02:04:23;;;;;;;23.02;6.45;;;11.00;99.90;;;;;;5035431;28;20029;-74
2023/03/26 02:07:01;;;;;;;24.55;6.60;;;10.90;99.90;;;;;;5034249;28;20024;-75
2023/03/26 02:09:29;;;;;;;21.77;6.68;;;11.00;99.90;;;;;;5018675;28;20074;-74
2023/03/26 02:11:55;;;;;;;25.75;6.10;;;11.00;99.90;;;;;;5015786;28;20029;-74
2023/03/26 02:14:21;;;;;;;25.38;7.18;;;10.90;99.90;;;;;;5030530;28;20033;-75
2023/03/26 02:16:47;;;;;;;21.73;6.60;;;10.90;99.90;;;;;;5014088;28;20041;-74
2023/03/26 02:19:20;;;;;;;20.35;7.22;;;10.90;99.90;;;;;;5015278;28;20026;-74
2023/03/26 02:21:50;;;;;;;25.17;7.10;;;10.90;99.90;;;;;;5015608;28;20053;-75
2023/03/26 02:24:17;;;;;;;24.33;6.20;;;10.90;99.90;;;;;;5027126;28;20045;-75
2023/03/26 02:26:43;;;;;;;24.85;6.50;;;10.80;99.90;;;;;;5035078;28;20033;-74
2023/03/26 02:29:11;;;;;;;26.58;7.25;;;10.90;99.90;;;;;;5033431;28;20243;-74
2023/03/26 02:31:37;;;;;;;20.92;6.93;;;10.90;99.90;;;;;;5017037;28;20037;-74
2023/03/26 02:34:03;;;;;;;21.27;6.45;;;10.90;99.90;;;;;;5034826;28;20025;-74
2023/03/26 02:36:29;;;;;;;23.90;6.65;;;10.90;99.90;;;;;;5034903;28;20482;-74
2023/03/26 02:38:56;;;;;;;25.65;6.68;;;10.80;99.90;;;;;;5034794;28;20390;-74
2023/03/26 02:41:22;;;;;;;25.48;6.03;;;10.80;99.90;;;;;;5017346;28;20018;-74
2023/03/26 02:43:48;;;;;;;27.10;6.57;;;10.70;99.90;;;;;;5032972;28;20442;-75
2023/03/26 02:46:14;;;;;;;22.55;5.95;;;10.70;99.90;;;;;;5034306;28;20048;-74
2023/03/26 02:48:41;;;;;;;21.70;5.47;;;10.70;99.90;;;;;;5033140;28;20410;-74
2023/03/26 02:51:07;;;;;;;21.20;6.03;;;10.80;99.90;;;;;;5034558;28;20037;-74
2023/03/26 02:53:33;;;;;;;31.67;7.35;;;10.80;99.90;;;;;;5034538;28;20045;-74
2023/03/26 02:55:59;;;;;;;20.90;6.20;;;10.70;99.90;;;;;;5034514;28;20032;-74
2023/03/26 02:58:28;;;;;;;28.42;6.72;;;10.70;99.90;;;;;;5032786;28;20044;-74
2023/03/26 03:00:55;;;;;;;24.75;6.53;;;10.70;99.90;;;;;;5016796;28;20038;-74
2023/03/26 03:03:25;;;;;;;25.02;6.03;;;10.80;99.90;;;;;;5034473;28;20516;-74
2023/03/26 03:05:54;;;;;;;23.85;6.88;;;10.80;99.90;;;;;;5034226;28;20025;-74
2023/03/26 03:08:22;;;;;;;20.20;7.10;;;10.80;99.90;;;;;;5033174;28;20053;-75
2023/03/26 03:10:59;;;;;;;24.40;6.32;;;10.70;99.90;;;;;;5033469;28;20026;-75
2023/03/26 03:13:26;;;;;;;21.55;6.40;;;10.70;99.90;;;;;;5002005;28;20391;-74
2023/03/26 03:15:52;;;;;;;17.65;5.93;;;10.80;99.90;;;;;;5029166;28;20030;-75
2023/03/26 03:18:18;;;;;;;30.02;6.38;;;10.70;99.90;;;;;;5014135;28;20033;-75
2023/03/26 03:20:45;;;;;;;26.48;6.03;;;10.70;99.90;;;;;;5014446;28;20030;-75
2023/03/26 03:23:11;;;;;;;27.50;6.85;;;10.80;99.90;;;;;;5032427;28;20060;-75
2023/03/26 03:25:39;;;;;;;28.38;6.05;;;10.80;99.90;;;;;;5034154;28;20026;-74
2023/03/26 03:28:06;;;;;;;29.30;6.47;;;10.80;99.90;;;;;;5033666;28;20032;-75
2023/03/26 03:30:32;;;;;;;20.27;6.13;;;10.80;99.90;;;;;;5032044;28;20045;-74
2023/03/26 03:32:58;;;;;;;20.40;6.22;;;10.80;99.90;;;;;;5032496;28;20037;-75
2023/03/26 03:35:28;;;;;;;27.05;7.03;;;10.90;99.90;;;;;;5033970;28;20045;-75
2023/03/26 03:37:56;;;;;;;37.28;7.20;;;10.80;99.90;;;;;;5033640;28;20034;-75
2023/03/26 03:40:22;;;;;;;30.65;6.93;;;10.80;99.90;;;;;;5033637;28;20483;-75
2023/03/26 03:42:48;;;;;;;36.55;7.38;;;10.90;99.90;;;;;;5032188;28;20046;-75
2023/03/26 03:45:14;;;;;;;27.90;6.80;;;10.80;99.90;;;;;;5031938;28;20052;-75
2023/03/26 03:47:40;;;;;;;26.88;6.50;;;10.80;99.90;;;;;;5033454;28;20045;-75
2023/03/26 03:50:07;;;;;;;26.00;6.80;;;10.80;99.90;;;;;;5033412;28;20451;-75
2023/03/26 03:52:34;;;;;;;29.58;7.72;;;10.80;99.90;;;;;;5033286;28;20041;-74
2023/03/26 03:55:00;;;;;;;29.27;7.43;;;10.90;99.90;;;;;;5033163;28;20041;-77
2023/03/26 03:57:27;;;;;;;30.02;6.72;;;10.90;99.90;;;;;;5032863;28;20033;-77
2023/03/26 03:59:56;;;;;;;25.20;6.78;;;10.80;99.90;;;;;;5032145;28;20036;-77
2023/03/26 04:02:29;;;;;;;28.45;6.38;;;10.90;99.90;;;;;;5031125;28;20037;-77
2023/03/26 04:04:58;;;;;;;35.90;7.15;;;10.80;99.90;;;;;;5032024;28;20025;-77
2023/03/26 04:07:25;;;;;;;30.40;7.38;;;10.90;99.90;;;;;;5015990;28;20470;-77
2023/03/26 04:09:51;;;;;;;30.10;8.25;;;10.80;99.90;;;;;;5031688;28;20051;-76
2023/03/26 04:12:17;;;;;;;31.13;8.23;;;10.80;99.90;;;;;;5027726;28;20049;-77
2023/03/26 04:14:43;;;;;;;29.95;7.70;;;10.90;99.90;;;;;;5011952;28;20493;-75
2023/03/26 04:17:12;;;;;;;32.17;7.40;;;10.90;99.90;;;;;;5012532;28;20045;-75
2023/03/26 04:19:39;;;;;;;33.28;7.25;;;10.80;99.90;;;;;;5011822;28;20048;-74
2023/03/26 04:22:05;;;;;;;29.95;7.97;;;10.80;99.90;;;;;;5012791;28;20050;-75
2023/03/26 04:24:32;;;;;;;26.50;6.03;;;10.80;99.90;;;;;;5025460;28;20041;-74
2023/03/26 04:26:59;;;;;;;30.77;6.80;;;10.80;99.90;;;;;;5032638;28;20032;-78
2023/03/26 04:29:26;;;;;;;31.65;6.65;;;10.90;99.90;;;;;;5032630;28;20030;-74
2023/03/26 04:31:57;;;;;;;34.67;7.18;;;10.80;99.90;;;;;;5014698;28;20045;-74
2023/03/26 04:34:23;;;;;;;24.08;6.53;;;10.80;99.90;;;;;;5031540;28;20033;-74
2023/03/26 04:36:53;;;;;;;20.38;7.05;;;10.80;99.90;;;;;;5015062;28;20381;-74
2023/03/26 04:39:20;;;;;;;11.10;4.43;;;10.70;99.90;;;;;;5031262;28;20034;-74
2023/03/26 04:41:47;;;;;;;12.25;5.13;;;10.50;99.90;;;;;;5014931;28;20044;-74
2023/03/26 04:44:15;;;;;;;10.40;4.50;;;10.40;99.90;;;;;;5032967;28;20037;-73
2023/03/26 04:46:42;;;;;;;10.82;4.22;;;10.40;99.90;;;;;;5032082;28;20048;-73
2023/03/26 04:49:09;;;;;;;14.10;4.93;;;10.30;99.90;;;;;;5031271;28;20394;-74
2023/03/26 04:51:40;;;;;;;9.88;3.90;;;10.30;99.90;;;;;;5031172;28;20025;-76
2023/03/26 04:54:07;;;;;;;11.02;4.22;;;10.20;99.90;;;;;;5014770;28;20053;-73
2023/03/26 04:56:36;;;;;;;6.82;3.72;;;10.20;99.90;;;;;;5014961;28;20454;-73
2023/03/26 04:59:02;;;;;;;10.57;4.18;;;10.20;99.90;;;;;;5031155;28;20026;-73
2023/03/26 05:01:29;;;;;;;10.70;4.07;;;10.10;99.90;;;;;;5030568;28;20036;-73
2023/03/26 05:03:57;;;;;;;14.63;4.40;;;10.10;99.90;;;;;;5032272;28;20036;-73
2023/03/26 05:06:27;;;;;;;10.80;4.00;;;10.10;99.90;;;;;;5014615;28;20394;-74
2023/03/26 05:08:54;;;;;;;12.07;5.07;;;10.10;99.90;;;;;;5014715;28;20063;-73
2023/03/26 05:11:20;;;;;;;10.82;4.30;;;10.10;99.90;;;;;;5031079;28;20263;-74
2023/03/26 05:13:46;;;;;;;12.85;5.10;;;10.10;99.90;;;;;;5015001;28;20046;-73
2023/03/26 05:16:12;;;;;;;14.80;4.95;;;10.10;99.90;;;;;;5010800;28;20471;-74
2023/03/26 05:18:38;;;;;;;9.90;5.43;;;10.10;99.90;;;;;;5012434;28;20029;-73
2023/03/26 05:21:05;;;;;;;12.93;6.30;;;10.20;99.90;;;;;;5012270;28;20073;-73
2023/03/26 05:23:31;;;;;;;16.10;5.03;;;10.20;99.90;;;;;;5017407;28;20049;-73
2023/03/26 05:25:57;;;;;;;18.60;5.47;;;10.20;99.90;;;;;;5031012;28;20090;-73
2023/03/26 05:28:25;;;;;;;15.35;5.00;;;10.20;99.90;;;;;;5031953;28;20026;-74
2023/03/26 05:30:51;;;;;;;12.52;4.40;;;10.10;99.90;;;;;;5030293;28;20530;-74
2023/03/26 05:33:19;;;;;;;14.80;4.50;;;10.00;99.90;;;;;;5032419;28;20073;-76
2023/03/26 05:35:45;;;;;;;16.15;4.80;;;10.00;99.90;;;;;;5035818;28;20026;-77
2023/03/26 05:38:11;;;;;;;12.23;4.15;;;10.00;99.90;;;;;;5034574;28;20029;-76
2023/03/26 05:40:37;;;;;;;9.65;4.40;;;10.00;99.90;;;;;;5035856;28;20041;-76
2023/03/26 05:43:03;;;;;;;8.27;4.20;;;10.00;99.90;;;;;;5035653;28;20041;-76
2023/03/26 05:45:29;;;;;;;9.30;4.45;;;10.00;99.90;;;;;;5035381;28;20049;-77
2023/03/26 05:47:55;;;;;;;16.40;4.55;;;10.00;99.90;;;;;;5034553;28;20032;-77
2023/03/26 05:50:23;;;;;;;9.57;4.07;;;9.90;99.90;;;;;;5035813;28;20033;-76
2023/03/26 05:52:49;;;;;;;9.50;3.97;;;9.90;99.90;;;;;;5017437;28;20041;-76
2023/03/26 05:55:17;;;;;;;10.63;3.70;;;9.80;99.90;;;;;;5035701;28;20034;-77
2023/03/26 05:57:43;;;;;;;10.02;4.22;;;9.80;99.90;;;;;;5035474;28;20033;-76
2023/03/26 06:00:10;;;;;;;11.00;4.18;;;9.80;99.90;;;;;;5035034;28;20413;-76
2023/03/26 06:02:37;;;;;;;13.43;4.50;;;9.80;99.90;;;;;;5034266;28;20033;-77
2023/03/26 06:05:04;;;;;;;12.30;4.22;;;9.70;99.90;;;;;;5035449;28;20037;-76
2023/03/26 06:07:30;;;;;;;9.00;3.80;;;9.80;99.90;;;;;;5035051;28;20037;-77
2023/03/26 06:09:56;;;;;;;10.57;4.10;;;9.80;99.90;;;;;;5035390;28;20109;-76
2023/03/26 06:12:22;;;;;;;7.97;4.30;;;9.70;99.90;;;;;;5028248;28;20026;-74
2023/03/26 06:14:48;;;;;;;11.73;4.25;;;9.70;99.90;;;;;;5014223;28;20512;-74
2023/03/26 06:17:14;;;;;;;9.93;4.15;;;9.70;99.90;;;;;;5013919;28;20041;-76
2023/03/26 06:19:40;;;;;;;15.40;4.13;;;9.70;99.90;;;;;;5015377;28;20030;-76
2023/03/26 06:22:06;;;;;;;10.57;4.40;;;9.60;99.90;;;;;;5014809;28;20049;-77
2023/03/26 06:24:33;;;;;;;11.88;4.10;;;9.60;99.90;;;;;;5027395;28;20393;-76
2023/03/26 06:26:59;;;;;;;7.28;4.38;;;9.60;99.90;;;;;;5035073;28;20033;-77
2023/03/26 06:29:26;;;;;;;12.75;4.55;;;9.60;99.90;;;;;;5033907;28;20390;-75
2023/03/26 06:31:52;;;;;;;14.90;4.63;;;9.70;99.90;;;;;;5034507;28;20478;-75
2023/03/26 06:34:18;;;;;;;12.40;4.30;;;9.70;99.90;;;;;;5035371;28;20061;-75
2023/03/26 06:36:44;;;;;;;17.60;4.45;;;9.70;99.90;;;;;;5034655;28;20030;-76
2023/03/26 06:39:10;;;;;;;14.93;4.13;;;9.80;99.90;;;;;;5033637;28;20037;-75
2023/03/26 06:41:36;;;;;;;9.85;4.43;;;9.80;99.90;;;;;;5034788;28;20036;-75
2023/03/26 06:44:02;;;;;;;17.88;4.80;;;9.80;99.90;;;;;;5033309;28;20406;-76
2023/03/26 06:46:28;;;;;;;13.05;4.50;;;9.90;99.90;;;;;;5034231;28;20040;-76
2023/03/26 06:48:54;;;;;;;5.38;4.03;;;10.10;99.90;;;;;;5034651;28;20033;-76
2023/03/26 06:51:21;;;;;;;9.65;4.10;;;10.20;99.90;;;;;;5033190;28;20046;-75
2023/03/26 06:53:47;;;;;;;12.60;3.90;;;10.30;99.90;;;;;;5034342;28;20037;-76
2023/03/26 06:56:13;;;;;;;6.97;4.00;;;10.30;99.90;;;;;;5034651;28;20033;-77
2023/03/26 06:58:39;;;;;;;9.90;4.30;;;10.40;99.90;;;;;;5033326;28;20033;-77
2023/03/26 07:01:05;;;;;;;13.73;4.10;;;10.50;99.90;;;;;;5034046;28;20041;-76
2023/03/26 07:03:31;;;;;;;10.75;4.60;;;10.60;99.90;;;;;;5034261;28;20493;-76
2023/03/26 07:05:58;;;;;;;15.52;4.78;;;10.80;99.90;;;;;;5034064;28;20089;-77
2023/03/26 07:08:24;;;;;;;10.85;4.50;;;10.90;99.90;;;;;;5034268;28;20041;-76
2023/03/26 07:10:50;;;;;;;11.45;4.90;;;11.10;99.90;;;;;;5034484;28;20407;-76
2023/03/26 07:13:16;;;;;;;10.85;4.68;;;11.20;99.90;;;;;;5019913;28;20038;-77
2023/03/26 07:15:42;;;;;;;13.77;5.07;;;11.40;99.90;;;;;;5014072;28;20049;-76
2023/03/26 07:18:08;;;;;;;9.40;4.78;;;11.60;99.90;;;;;;5014242;28;20501;-76
2023/03/26 07:20:34;;;;;;;14.90;4.93;;;11.70;99.90;;;;;;5013966;28;20463;-76
2023/03/26 07:23:01;;;;;;;10.88;5.10;;;11.80;99.90;;;;;;5014567;28;20038;-76
2023/03/26 07:25:27;;;;;;;14.13;5.40;;;11.80;99.90;;;;;;5034189;28;20037;-76
2023/03/26 07:27:59;;;;;;;10.40;5.95;;;11.90;99.90;;;;;;5033997;28;20033;-76
2023/03/26 07:30:31;;;;;;;;;;;12.00;99.90;;;;;;5032517;28;20501;-76
2023/03/26 07:33:18;;;;;;;16.00;5.28;;;12.10;99.90;;;;;;5032229;28;19913;-76
2023/03/26 07:35:51;;;;;;;13.48;5.20;;;12.20;99.90;;;;;;5032726;28;20029;-76
2023/03/26 07:38:44;;;;;;;10.40;4.25;;;12.30;99.90;;;;;;5032614;28;20033;-76
2023/03/26 07:41:28;;;;;;;9.93;4.50;;;12.40;99.90;;;;;;5031359;28;20037;-76
2023/03/26 07:44:00;;;;;;;19.13;4.88;;;12.50;99.90;;;;;;5014787;28;20030;-76
2023/03/26 07:46:35;;;;;;;11.13;4.50;;;12.50;99.90;;;;;;5030978;28;20033;-76
2023/03/26 07:49:03;;;;;;;13.90;4.80;;;12.60;99.90;;;;;;5014954;28;20505;-77
2023/03/26 07:51:30;;;;;;;10.30;4.63;;;12.70;99.90;;;;;;5014681;28;20044;-76
2023/03/26 07:53:58;;;;;;;12.82;5.20;;;12.80;99.90;;;;;;5014802;28;20044;-76
2023/03/26 07:56:36;;;;;;;10.60;5.50;;;13.00;99.90;;;;;;5029941;28;20041;-77
2023/03/26 07:59:18;;;;;;;12.18;5.05;;;13.10;99.90;;;;;;5014727;28;20048;-76
2023/03/26 08:01:52;;;;;;;11.23;4.68;;;13.30;99.90;;;;;;5014092;28;20033;-76
2023/03/26 08:04:18;;;;;;;13.82;4.65;;;13.40;99.90;;;;;;5031085;28;20042;-77
2023/03/26 08:06:53;;;;;;;15.45;4.72;;;13.50;99.90;;;;;;5014474;28;20045;-77
2023/03/26 08:10:12;;;;;;;10.73;4.85;;;13.50;99.90;;;;;;5014612;28;20378;-77
2023/03/26 08:12:43;;;;;;;13.35;5.82;;;13.60;99.90;;;;;;4964347;28;20040;-77
2023/03/26 08:15:24;;;;;;;16.50;5.40;;;13.80;99.90;;;;;;4968011;28;20043;-76
2023/03/26 08:18:08;;;;;;;17.38;6.68;;;13.80;99.90;;;;;;4968406;28;20043;-77
2023/03/26 08:20:40;;;;;;;17.33;5.68;;;13.90;99.90;;;;;;4952865;29;20520;-76
2023/03/26 08:23:12;;;;;;;16.35;6.78;;;14.00;99.90;;;;;;4944494;28;20570;-77
2023/03/26 08:26:15;;;;;;;18.80;7.03;;;14.10;99.90;;;;;;4959991;28;20031;-76
2023/03/26 08:28:44;;;;;;;14.82;6.28;;;14.20;99.90;;;;;;4991410;28;20035;-76
2023/03/26 08:31:12;;;;;;;15.82;5.75;;;14.40;99.90;;;;;;4974327;28;20411;-76
2023/03/26 08:33:39;;;;;;;18.00;6.43;;;14.40;99.90;;;;;;4959351;28;20053;-77
2023/03/26 08:36:07;;;;;;;16.48;5.85;;;14.30;99.90;;;;;;4991237;28;20027;-76
2023/03/26 08:38:33;;;;;;;13.02;6.07;;;14.20;99.90;;;;;;4991379;28;20038;-76
2023/03/26 08:41:11;;;;;;;23.02;7.40;;;14.20;99.90;;;;;;4974959;28;20043;-76
2023/03/26 08:43:40;;;;;;;19.08;6.95;;;14.30;99.90;;;;;;4990926;28;20027;-76
2023/03/26 08:46:35;;;;;;;15.93;7.20;;;14.30;99.90;;;;;;4980921;28;20049;-76
2023/03/26 08:49:34;;;;;;;15.80;6.55;;;14.30;99.90;;;;;;4990826;28;20519;-76
2023/03/26 08:52:38;;;;;;;17.90;6.30;;;14.20;99.90;;;;;;4990471;28;20491;-76
2023/03/26 08:55:29;;;;;;;17.73;5.30;;;14.10;99.90;;;;;;4932972;29;20043;-76
2023/03/26 08:58:14;;;;;;;16.02;6.10;;;13.90;99.90;;;;;;4932970;29;20043;-76
2023/03/26 09:01:00;;;;;;;19.80;5.90;;;14.00;99.90;;;;;;4937205;29;20042;-76
2023/03/26 09:04:01;;;;;;;15.82;6.15;;;14.10;99.90;;;;;;4952147;29;20035;-76
2023/03/26 09:06:57;;;;;;;17.98;5.82;;;14.30;99.90;;;;;;4951379;29;20051;-76
2023/03/26 09:09:47;;;;;;;21.70;7.47;;;14.10;99.90;;;;;;4951979;29;20065;-76
2023/03/26 09:12:52;;;;;;;13.00;5.53;;;13.80;99.90;;;;;;4947708;29;20098;-76
2023/03/26 09:15:27;;;;;;;10.05;4.75;;;13.30;99.90;;;;;;4906423;29;20045;-76
2023/03/26 09:18:18;;;;;;;11.13;4.22;;;12.70;99.90;;;;;;4910661;29;20045;-75
2023/03/26 09:21:12;;;;;;;8.52;3.53;;;12.50;99.90;;;;;;4910799;29;20033;-75
2023/03/26 09:24:13;;;;;;;10.23;4.15;;;12.30;99.90;;;;;;4894823;29;20072;-75
2023/03/26 09:26:50;;;;;;;13.23;4.50;;;12.30;99.90;;;;;;4885684;29;20051;-75
2023/03/26 09:29:28;;;;;;;11.90;4.82;;;12.30;99.90;;;;;;4894059;29;20277;-76
2023/03/26 09:32:16;;;;;;;12.77;5.97;;;12.40;99.90;;;;;;4912549;29;20036;-76
2023/03/26 09:35:16;;;;;;;13.18;4.88;;;12.50;99.90;;;;;;4917420;29;20511;-76
2023/03/26 09:37:53;;;;;;;12.50;5.05;;;12.60;99.90;;;;;;4932812;29;20058;-76
2023/03/26 09:40:23;;;;;;;9.82;5.93;;;12.70;99.90;;;;;;4932676;29;20485;-76
2023/03/26 09:43:10;;;;;;;16.13;5.85;;;13.00;99.90;;;;;;4901369;29;20035;-76
2023/03/26 09:45:40;;;;;;;11.38;5.13;;;13.10;99.90;;;;;;4931682;29;20032;-76
2023/03/26 09:48:21;;;;;;;13.75;8.07;;;13.10;99.90;;;;;;4916361;29;20039;-76
2023/03/26 09:50:52;;;;;;;;;;;13.10;99.90;;;;;;4918460;29;20034;-76
2023/03/26 09:53:35;;;;;;;10.25;5.53;;;12.90;99.90;;;;;;4987980;28;19933;-76
2023/03/26 09:56:12;;;;;;;8.10;4.93;;;12.80;99.90;;;;;;4991288;28;20038;-76
2023/03/26 09:59:00;;;;;;;15.60;4.85;;;12.60;99.90;;;;;;4991259;28;20033;-76
2023/03/26 10:01:48;;;;;;;11.82;5.88;;;12.50;99.90;;;;;;4991989;28;20037;-75
2023/03/26 10:04:40;;;;;;;14.80;5.32;;;12.40;99.90;;;;;;4991635;28;20383;-76
2023/03/26 10:07:07;;;;;;;11.52;5.72;;;12.40;99.90;;;;;;4991376;28;20376;-76
2023/03/26 10:09:55;;;;;;;13.27;5.70;;;12.50;99.90;;;;;;4991267;28;20038;-76
2023/03/26 10:12:41;;;;;;;11.05;5.55;;;12.60;99.90;;;;;;4982389;28;20463;-76
2023/03/26 10:15:20;;;;;;;18.50;6.55;;;12.70;99.90;;;;;;5010099;28;20491;-76
2023/03/26 10:17:55;;;;;;;14.23;5.15;;;12.60;99.90;;;;;;5011832;28;20487;-76
2023/03/26 10:20:43;;;;;;;14.38;6.05;;;12.60;99.90;;;;;;5015109;28;20037;-77
2023/03/26 10:23:35;;;;;;;11.85;6.18;;;12.80;99.90;;;;;;5016919;28;20046;-76
2023/03/26 10:26:20;;;;;;;15.52;5.45;;;13.10;99.90;;;;;;5034219;28;20028;-76
2023/03/26 10:28:46;;;;;;;14.77;5.78;;;13.40;99.90;;;;;;5035015;28;20056;-76
2023/03/26 10:31:38;;;;;;;14.40;5.65;;;13.60;99.90;;;;;;5034632;28;20513;-76
2023/03/26 10:34:41;;;;;;;15.18;5.60;;;13.70;99.90;;;;;;5028915;28;20410;-76
2023/03/26 10:37:09;;;;;;;10.40;5.32;;;13.50;99.90;;;;;;5034714;28;20084;-76
2023/03/26 10:40:00;;;;;;;11.48;5.80;;;13.30;99.90;;;;;;5033738;28;20022;-76
2023/03/26 10:43:18;;;;;;;8.93;5.20;;;12.90;99.90;;;;;;5034574;28;20037;-76
2023/03/26 10:46:43;;;;;;;12.40;4.90;;;12.70;99.90;;;;;;4996222;28;20033;-76
2023/03/26 10:49:36;;;;;;;15.57;5.60;;;12.60;99.90;;;;;;4878480;29;20037;-77
2023/03/26 10:52:07;;;;;;;17.20;6.05;;;12.60;99.90;;;;;;4878696;29;20045;-75
2023/03/26 10:54:33;;;;;;;22.45;8.68;;;12.60;99.90;;;;;;4863800;29;20041;-75
2023/03/26 10:56:59;;;;;;;28.38;13.55;;;12.60;99.90;;;;;;4878159;29;20080;-76
2023/03/26 10:59:26;;;;;;;18.80;8.20;;;12.50;99.90;;;;;;4863292;29;20063;-76
2023/03/26 11:02:11;;;;;;;29.63;13.57;;;12.60;99.90;;;;;;4862399;29;20029;-76
2023/03/26 11:04:54;;;;;;;34.65;16.50;;;12.60;99.90;;;;;;4878295;29;20045;-76
2023/03/26 11:07:25;;;;;;;43.92;21.63;;;12.70;99.90;;;;;;4863048;29;20495;-76
2023/03/26 11:10:06;;;;;;;25.60;9.10;;;12.70;99.90;;;;;;4862894;29;20041;-76
2023/03/26 11:12:50;;;;;;;23.70;9.32;;;12.70;99.90;;;;;;4871326;29;20050;-76
2023/03/26 11:15:57;;;;;;;15.88;5.90;;;12.80;99.90;;;;;;4858730;29;20044;-75
2023/03/26 11:18:40;;;;;;;18.98;7.00;;;12.70;99.90;;;;;;4844165;29;20044;-75
2023/03/26 11:21:23;;;;;;;9.88;5.22;;;12.50;99.90;;;;;;4843989;29;20063;-75
2023/03/26 11:24:05;;;;;;;8.25;4.10;;;12.20;99.90;;;;;;4829582;29;20057;-75
2023/03/26 11:26:48;;;;;;;7.80;4.00;;;11.90;99.90;;;;;;4927993;29;20492;-74
2023/03/26 11:29:41;;;;;;;10.93;4.60;;;11.60;99.90;;;;;;4934494;29;20054;-75
2023/03/26 11:32:11;;;;;;;7.45;4.53;;;11.40;99.90;;;;;;4948825;28;20039;-74
2023/03/26 11:34:57;;;;;;;10.68;4.78;;;11.10;99.90;;;;;;4953561;29;20143;-75
2023/03/26 11:37:37;;;;;;;8.95;6.15;;;10.80;99.90;;;;;;4953623;29;20043;-75
2023/03/26 11:40:10;;;;;;;9.63;7.53;;;10.70;99.90;;;;;;4953299;29;20074;-75
2023/03/26 11:42:36;;;;;;;9.45;5.55;;;10.70;99.90;;;;;;4952645;29;20055;-75
2023/03/26 11:45:04;;;;;;;12.43;6.15;;;10.70;99.90;;;;;;4953393;29;20027;-76
2023/03/26 11:47:37;;;;;;;8.55;5.28;;;10.70;99.90;;;;;;4936508;29;20040;-75
2023/03/26 11:50:03;;;;;;;7.75;4.78;;;10.60;99.90;;;;;;4952681;29;20126;-75
2023/03/26 11:52:29;;;;;;;6.38;4.60;;;10.50;99.90;;;;;;4953144;29;20131;-75
2023/03/26 11:54:58;;;;;;;8.55;6.03;;;10.60;99.90;;;;;;5000168;28;20050;-75
2023/03/26 11:57:29;;;;;;;13.68;8.18;;;10.60;99.90;;;;;;4994073;28;20022;-75
2023/03/26 12:00:10;;;;;;;6.25;4.78;;;10.70;99.90;;;;;;4992776;28;20487;-74
2023/03/26 12:02:37;;;;;;;9.73;5.65;;;10.60;99.90;;;;;;4977199;28;20042;-75
2023/03/26 12:05:13;;;;;;;11.02;4.82;;;10.70;99.90;;;;;;4976108;28;20399;-75
2023/03/26 12:07:50;;;;;;;7.45;4.47;;;10.80;99.90;;;;;;4993707;28;20037;-75
2023/03/26 12:10:36;;;;;;;10.65;5.72;;;10.80;99.90;;;;;;5008737;28;20375;-75
2023/03/26 12:13:25;;;;;;;8.55;5.03;;;10.90;99.90;;;;;;5004561;28;20030;-75
2023/03/26 12:15:55;;;;;;;10.40;5.40;;;10.90;99.90;;;;;;5011707;28;20068;-76
2023/03/26 12:18:26;;;;;;;10.10;4.93;;;10.90;99.90;;;;;;5029237;28;20387;-75
2023/03/26 12:21:07;;;;;;;8.27;5.78;;;10.80;99.90;;;;;;5028819;28;20033;-75
2023/03/26 12:23:40;;;;;;;8.32;5.45;;;10.80;99.90;;;;;;5018532;28;20528;-75
2023/03/26 12:26:14;;;;;;;10.90;6.32;;;10.90;99.90;;;;;;5031689;28;20032;-75
2023/03/26 12:28:44;;;;;;;11.77;7.72;;;11.00;99.90;;;;;;5015982;28;20050;-75
2023/03/26 12:31:16;;;;;;;11.23;7.70;;;10.90;99.90;;;;;;5032532;28;20040;-75
2023/03/26 12:33:44;;;;;;;6.97;6.20;;;10.90;99.90;;;;;;5031498;28;20053;-75
2023/03/26 12:36:16;;;;;;;8.88;7.03;;;11.00;99.90;;;;;;5031643;28;20505;-75
2023/03/26 12:38:44;;;;;;;7.85;6.25;;;11.20;99.90;;;;;;5031467;28;20041;-76
2023/03/26 12:41:11;;;;;;;7.82;6.80;;;11.40;99.90;;;;;;5015219;28;20029;-76
2023/03/26 12:43:42;;;;;;;6.30;4.97;;;11.60;99.90;;;;;;5033190;28;20068;-75
2023/03/26 12:46:31;;;;;;;7.97;6.15;;;11.60;99.90;;;;;;5030969;28;20029;-76
2023/03/26 12:49:05;;;;;;;6.80;4.95;;;11.70;99.90;;;;;;5032481;28;20029;-76
2023/03/26 12:51:51;;;;;;;6.80;4.30;;;11.80;99.90;;;;;;5031218;28;20042;-76
2023/03/26 12:54:43;;;;;;;7.65;5.18;;;11.80;99.90;;;;;;5031136;28;20037;-76
2023/03/26 12:57:29;;;;;;;14.90;9.05;;;12.00;99.90;;;;;;5032257;28;20022;-76
2023/03/26 13:00:09;;;;;;;20.88;11.90;;;12.20;99.90;;;;;;5031387;28;20026;-76
2023/03/26 13:03:14;;;;;;;14.57;10.43;;;12.30;99.90;;;;;;5030438;28;20036;-76
2023/03/26 13:05:49;;;;;;;19.23;10.07;;;12.40;99.90;;;;;;5031036;28;20029;-75
2023/03/26 13:08:37;;;;;;;8.02;6.05;;;12.30;99.90;;;;;;5030703;28;20386;-76
2023/03/26 13:11:34;;;;;;;25.83;13.73;;;12.10;99.90;;;;;;5031108;28;20026;-75